createdAt,value
2019-03-04T00:01:23.538Z,12.40
2019-03-04T00:03:56.857Z,12.40
2019-03-04T00:06:29.967Z,12.40
2019-03-04T00:09:05.248Z,12.40
2019-03-04T00:11:40.003Z,12.40
2019-03-04T00:14:13.207Z,12.40
2019-03-04T00:16:46.178Z,12.40
2019-03-04T00:19:19.187Z,12.40
2019-03-04T00:21:52.110Z,12.40
2019-03-04T00:24:26.014Z,12.50
2019-03-04T00:26:58.997Z,12.50
2019-03-04T00:29:32.171Z,12.60
2019-03-04T00:32:04.925Z,12.70
2019-03-04T00:34:38.159Z,12.80
2019-03-04T00:37:11.220Z,12.80
2019-03-04T00:39:44.448Z,12.80
2019-03-04T00:42:17.299Z,12.90
2019-03-04T00:44:50.543Z,12.80
2019-03-04T00:47:23.365Z,12.80
2019-03-04T00:49:57.039Z,12.80
2019-03-04T00:52:30.188Z,13.00
2019-03-04T00:55:04.665Z,13.00
2019-03-04T00:57:37.429Z,12.90
2019-03-04T01:00:15.277Z,12.80
2019-03-04T01:02:48.095Z,13.00
2019-03-04T01:05:20.999Z,13.00
2019-03-04T01:07:56.301Z,12.90
2019-03-04T01:10:29.092Z,13.00
2019-03-04T01:13:02.013Z,13.00
2019-03-04T01:15:35.100Z,13.00
2019-03-04T01:18:08.135Z,12.90
2019-03-04T01:20:40.995Z,12.90
2019-03-04T01:23:13.837Z,13.00
2019-03-04T01:25:46.939Z,12.90
2019-03-04T01:28:20.014Z,12.90
2019-03-04T01:30:52.960Z,12.80
2019-03-04T01:33:25.951Z,12.90
2019-03-04T01:35:58.785Z,12.90
2019-03-04T01:38:31.844Z,12.80
2019-03-04T01:41:04.684Z,12.80
2019-03-04T01:43:37.750Z,12.80
2019-03-04T01:46:10.644Z,12.80
2019-03-04T01:48:43.424Z,12.80
2019-03-04T01:51:16.335Z,12.80
2019-03-04T01:53:49.288Z,12.70
2019-03-04T01:56:22.195Z,12.70
2019-03-04T01:58:55.176Z,12.70
2019-03-04T02:01:27.968Z,12.70
2019-03-04T02:04:00.991Z,12.60
2019-03-04T02:06:33.789Z,12.60
2019-03-04T02:09:06.747Z,12.50
2019-03-04T02:11:41.401Z,12.50
2019-03-04T02:14:14.316Z,12.50
2019-03-04T02:16:47.280Z,12.50
2019-03-04T02:19:20.253Z,12.50
2019-03-04T02:21:53.032Z,12.40
2019-03-04T02:24:26.432Z,12.40
2019-03-04T02:26:59.633Z,12.40
2019-03-04T02:29:32.706Z,12.40
2019-03-04T02:32:05.804Z,12.40
2019-03-04T02:34:38.767Z,12.40
2019-03-04T02:37:11.612Z,12.40
2019-03-04T02:39:44.626Z,12.40
2019-03-04T02:42:17.614Z,12.40
2019-03-04T02:44:50.447Z,12.40
2019-03-04T02:47:23.216Z,12.40
2019-03-04T02:49:56.156Z,12.40
2019-03-04T02:52:29.121Z,12.40
2019-03-04T02:55:01.937Z,12.50
2019-03-04T02:57:34.805Z,12.50
2019-03-04T03:00:08.738Z,12.60
2019-03-04T03:02:41.809Z,12.60
2019-03-04T03:05:14.665Z,12.70
2019-03-04T03:07:47.544Z,12.70
2019-03-04T03:10:20.371Z,12.80
2019-03-04T03:12:53.351Z,12.70
2019-03-04T03:15:26.357Z,12.80
2019-03-04T03:17:59.328Z,12.90
2019-03-04T03:20:32.158Z,12.80
2019-03-04T03:23:05.126Z,12.80
2019-03-04T03:25:37.982Z,12.80
2019-03-04T03:28:11.122Z,12.80
2019-03-04T03:30:44.129Z,12.80
2019-03-04T03:33:17.221Z,12.80
2019-03-04T03:35:51.091Z,12.80
2019-03-04T03:38:24.131Z,12.80
2019-03-04T03:40:56.886Z,12.80
2019-03-04T03:43:29.762Z,12.80
2019-03-04T03:46:02.752Z,12.80
2019-03-04T03:48:35.757Z,12.70
2019-03-04T03:51:08.707Z,12.70
2019-03-04T03:53:41.691Z,12.60
2019-03-04T03:56:14.765Z,12.60
2019-03-04T03:58:47.937Z,12.60
2019-03-04T04:01:20.885Z,12.50
2019-03-04T04:03:53.828Z,12.50
2019-03-04T04:06:26.742Z,12.50
2019-03-04T04:08:59.648Z,12.40
2019-03-04T04:11:32.493Z,12.50
2019-03-04T04:14:05.426Z,12.40
2019-03-04T04:16:38.324Z,12.40
2019-03-04T04:19:11.337Z,12.40
2019-03-04T04:21:44.271Z,12.40
2019-03-04T04:24:17.133Z,12.50
2019-03-04T04:26:50.951Z,12.50
2019-03-04T04:29:23.849Z,12.50
2019-03-04T04:31:57.133Z,12.50
2019-03-04T04:34:29.938Z,12.50
2019-03-04T04:37:02.901Z,12.50
2019-03-04T04:39:35.813Z,12.50
2019-03-04T04:42:08.568Z,12.40
2019-03-04T04:44:41.353Z,12.40
2019-03-04T04:47:14.232Z,12.30
2019-03-04T04:49:47.087Z,12.30
2019-03-04T04:52:19.989Z,12.30
2019-03-04T04:54:52.753Z,12.30
2019-03-04T04:57:25.589Z,12.20
2019-03-04T04:59:58.505Z,12.20
2019-03-04T05:02:31.337Z,12.10
2019-03-04T05:05:05.129Z,12.10
2019-03-04T05:07:37.931Z,12.00
2019-03-04T05:10:13.398Z,12.00
2019-03-04T05:12:46.402Z,12.00
2019-03-04T05:15:20.129Z,12.10
2019-03-04T05:17:53.072Z,12.10
2019-03-04T05:20:25.958Z,12.00
2019-03-04T05:22:58.935Z,12.00
2019-03-04T05:25:31.710Z,12.00
2019-03-04T05:28:04.475Z,12.00
2019-03-04T05:30:37.318Z,12.00
2019-03-04T05:33:10.404Z,12.10
2019-03-04T05:35:43.242Z,12.10
2019-03-04T05:38:16.102Z,12.20
2019-03-04T05:40:48.923Z,12.20
2019-03-04T05:43:21.827Z,12.40
2019-03-04T05:45:54.601Z,12.30
2019-03-04T05:48:27.463Z,12.30
2019-03-04T05:51:00.496Z,12.40
2019-03-04T05:53:33.400Z,12.40
2019-03-04T05:56:07.133Z,12.40
2019-03-04T05:58:40.090Z,12.50
2019-03-04T06:01:24.488Z,12.50
2019-03-04T06:04:02.553Z,12.40
2019-03-04T06:06:54.232Z,12.50
2019-03-04T06:09:27.236Z,12.50
2019-03-04T06:11:59.981Z,12.50
2019-03-04T06:14:33.064Z,12.50
2019-03-04T06:17:05.894Z,12.70
2019-03-04T06:19:38.829Z,12.70
2019-03-04T06:22:11.718Z,12.80
2019-03-04T06:24:44.668Z,12.80
2019-03-04T06:27:17.804Z,12.80
2019-03-04T06:29:50.560Z,12.80
2019-03-04T06:32:23.498Z,12.70
2019-03-04T06:34:56.294Z,12.70
2019-03-04T06:37:29.348Z,12.70
2019-03-04T06:40:02.249Z,12.70
2019-03-04T06:42:36.397Z,11.60
2019-03-04T06:45:11.953Z,10.50
2019-03-04T06:47:45.077Z,9.50
2019-03-04T06:50:49.292Z,9.30
2019-03-04T06:54:03.900Z,9.20
2019-03-04T06:57:27.858Z,8.90
2019-03-04T07:00:50.563Z,8.80
2019-03-04T07:03:32.148Z,8.60
2019-03-04T07:06:05.119Z,8.30
2019-03-04T07:09:11.760Z,8.00
2019-03-04T07:11:52.359Z,7.90
2019-03-04T07:14:26.266Z,7.80
2019-03-04T07:16:59.221Z,7.80
2019-03-04T07:19:37.033Z,7.80
2019-03-04T07:22:11.099Z,7.80
2019-03-04T07:24:44.880Z,8.00
2019-03-04T07:27:17.814Z,8.10
2019-03-04T07:29:50.750Z,8.40
2019-03-04T07:32:23.818Z,8.70
2019-03-04T07:34:56.594Z,8.90
2019-03-04T07:37:29.425Z,9.10
2019-03-04T07:40:02.504Z,9.40
2019-03-04T07:42:35.394Z,9.60
2019-03-04T07:45:09.750Z,9.60
2019-03-04T07:47:42.489Z,9.60
2019-03-04T07:50:15.433Z,9.70
2019-03-04T07:52:55.951Z,9.70
2019-03-04T07:55:29.029Z,9.60
2019-03-04T07:58:01.920Z,9.60
2019-03-04T08:00:35.148Z,9.50
2019-03-04T08:03:08.106Z,9.60
2019-03-04T08:05:41.429Z,9.60
2019-03-04T08:08:14.285Z,9.70
2019-03-04T08:11:54.656Z,9.80
2019-03-04T08:14:27.626Z,9.90
2019-03-04T08:17:00.801Z,10.10
2019-03-04T08:19:34.697Z,10.10
2019-03-04T08:22:07.661Z,10.10
2019-03-04T08:24:41.821Z,10.20
2019-03-04T08:27:14.771Z,10.20
2019-03-04T08:29:47.951Z,10.10
2019-03-04T08:32:20.716Z,10.20
2019-03-04T08:34:53.648Z,10.20
2019-03-04T08:37:26.556Z,10.10
2019-03-04T08:39:59.841Z,10.10
2019-03-04T08:42:32.959Z,10.10
2019-03-04T08:45:06.747Z,10.10
2019-03-04T08:47:40.297Z,10.40
2019-03-04T08:50:13.774Z,10.60
2019-03-04T08:52:46.668Z,10.80
2019-03-04T08:55:19.909Z,10.90
2019-03-04T08:57:53.080Z,11.10
2019-03-04T09:00:27.255Z,10.90
2019-03-04T09:03:00.237Z,11.00
2019-03-04T09:05:33.216Z,11.10
2019-03-04T09:08:07.195Z,11.20
2019-03-04T09:10:40.302Z,11.30
2019-03-04T09:13:13.317Z,11.70
2019-03-04T09:15:46.432Z,11.80
2019-03-04T09:18:19.393Z,11.70
2019-03-04T09:20:52.166Z,11.50
2019-03-04T09:23:25.266Z,11.20
2019-03-04T09:26:02.406Z,11.20
2019-03-04T09:28:35.707Z,11.10
2019-03-04T09:31:21.642Z,11.10
2019-03-04T09:33:54.915Z,11.00
2019-03-04T09:36:27.886Z,11.00
2019-03-04T09:39:00.675Z,11.00
2019-03-04T09:41:33.744Z,10.90
2019-03-04T09:44:06.624Z,11.00
2019-03-04T09:46:39.861Z,11.10
2019-03-04T09:49:12.896Z,11.20
2019-03-04T09:51:45.921Z,11.20
2019-03-04T09:54:18.782Z,11.40
2019-03-04T09:56:51.826Z,11.50
2019-03-04T09:59:24.917Z,11.40
2019-03-04T10:02:01.607Z,11.30
2019-03-04T10:05:28.498Z,11.20
2019-03-04T10:08:36.378Z,11.10
2019-03-04T10:12:18.716Z,11.10
2019-03-04T10:15:36.194Z,11.10
2019-03-04T10:18:34.899Z,11.20
2019-03-04T10:21:43.307Z,11.40
2019-03-04T10:25:12.038Z,11.60
2019-03-04T10:28:32.371Z,11.90
2019-03-04T10:31:45.918Z,12.10
2019-03-04T10:34:59.566Z,12.00
2019-03-04T10:38:11.348Z,11.90
2019-03-04T10:41:13.088Z,11.70
2019-03-04T10:44:11.157Z,11.70
2019-03-04T10:46:58.164Z,11.60
2019-03-04T10:49:33.784Z,11.50
2019-03-04T10:52:07.079Z,11.50
2019-03-04T10:54:40.027Z,11.50
2019-03-04T10:57:13.201Z,11.40
2019-03-04T10:59:46.077Z,11.40
2019-03-04T11:02:19.153Z,11.40
2019-03-04T11:04:52.063Z,11.40
2019-03-04T11:07:25.170Z,11.50
2019-03-04T11:09:58.057Z,11.40
2019-03-04T11:12:31.677Z,11.40
2019-03-04T11:15:08.168Z,11.40
2019-03-04T11:17:41.347Z,11.40
2019-03-04T11:20:14.374Z,11.50
2019-03-04T11:22:47.483Z,11.50
2019-03-04T11:25:20.458Z,11.50
2019-03-04T11:27:53.844Z,11.50
2019-03-04T11:30:29.158Z,11.50
2019-03-04T11:33:04.307Z,11.20
2019-03-04T11:35:37.383Z,11.00
2019-03-04T11:38:36.868Z,10.90
2019-03-04T11:41:12.300Z,10.90
2019-03-04T11:43:45.518Z,10.90
2019-03-04T11:46:21.345Z,10.90
2019-03-04T11:48:54.211Z,10.90
2019-03-04T11:51:26.983Z,10.80
2019-03-04T11:54:00.165Z,10.70
2019-03-04T11:56:33.032Z,10.60
2019-03-04T11:59:06.055Z,10.30
2019-03-04T12:01:42.424Z,9.20
2019-03-04T12:04:15.275Z,7.60
2019-03-04T12:06:48.365Z,7.00
2019-03-04T12:09:21.610Z,6.90
2019-03-04T12:11:54.508Z,6.90
2019-03-04T12:14:27.353Z,6.70
2019-03-04T12:17:00.134Z,6.70
2019-03-04T12:19:34.324Z,6.40
2019-03-04T12:22:07.648Z,6.30
2019-03-04T12:24:40.851Z,6.20
2019-03-04T12:27:13.954Z,6.20
2019-03-04T12:29:46.843Z,6.20
2019-03-04T12:32:27.715Z,6.20
2019-03-04T12:35:00.630Z,6.30
2019-03-04T12:37:33.463Z,6.40
2019-03-04T12:40:07.673Z,6.40
2019-03-04T12:42:40.520Z,6.40
2019-03-04T12:45:14.230Z,6.40
2019-03-04T12:47:47.201Z,6.40
2019-03-04T12:50:22.087Z,6.50
2019-03-04T12:52:55.199Z,6.50
2019-03-04T12:55:28.070Z,6.50
2019-03-04T12:58:01.111Z,6.60
2019-03-04T13:00:34.263Z,6.60
2019-03-04T13:03:15.963Z,6.80
2019-03-04T13:05:48.785Z,6.90
2019-03-04T13:08:21.815Z,7.10
2019-03-04T13:10:54.753Z,7.30
2019-03-04T13:13:27.947Z,7.20
2019-03-04T13:16:01.889Z,7.30
2019-03-04T13:18:34.874Z,7.30
2019-03-04T13:21:07.679Z,7.30
2019-03-04T13:23:40.554Z,7.20
2019-03-04T13:26:13.701Z,7.10
2019-03-04T13:28:46.753Z,7.20
2019-03-04T13:31:19.870Z,7.40
2019-03-04T13:33:53.091Z,7.50
2019-03-04T13:36:27.307Z,7.90
2019-03-04T13:39:00.211Z,8.00
2019-03-04T13:41:33.088Z,7.80
2019-03-04T13:44:06.209Z,7.90
2019-03-04T13:46:39.304Z,7.90
2019-03-04T13:49:12.271Z,7.80
2019-03-04T13:51:45.570Z,7.70
2019-03-04T13:54:18.559Z,7.70
2019-03-04T13:56:51.362Z,7.70
2019-03-04T13:59:25.405Z,7.60
2019-03-04T14:01:58.353Z,7.60
2019-03-04T14:04:31.326Z,7.50
2019-03-04T14:07:04.370Z,7.70
2019-03-04T14:09:37.201Z,7.80
2019-03-04T14:12:10.274Z,7.80
2019-03-04T14:14:43.241Z,7.90
2019-03-04T14:17:16.111Z,8.00
2019-03-04T14:19:49.087Z,8.20
2019-03-04T14:22:22.270Z,8.40
2019-03-04T14:24:55.132Z,8.50
2019-03-04T14:27:28.242Z,8.60
2019-03-04T14:30:01.302Z,8.70
2019-03-04T14:32:34.376Z,8.80
2019-03-04T14:35:07.553Z,8.80
2019-03-04T14:37:40.597Z,8.70
2019-03-04T14:40:16.497Z,8.60
2019-03-04T14:42:49.401Z,8.60
2019-03-04T14:45:23.218Z,8.50
2019-03-04T14:47:56.411Z,8.50
2019-03-04T14:50:29.466Z,8.50
2019-03-04T14:53:02.281Z,8.60
2019-03-04T14:55:35.409Z,8.70
2019-03-04T14:58:08.114Z,8.80
2019-03-04T15:00:41.691Z,8.80
2019-03-04T15:03:22.850Z,8.80
2019-03-04T15:05:49.422Z,8.90
2019-03-04T15:08:22.363Z,8.90
2019-03-04T15:10:55.415Z,8.90
2019-03-04T15:13:28.598Z,8.80
2019-03-04T15:16:04.431Z,8.80
2019-03-04T15:18:36.961Z,8.80
2019-03-04T15:21:10.006Z,8.80
2019-03-04T15:23:43.016Z,8.80
2019-03-04T15:26:16.510Z,8.90
2019-03-04T15:28:49.543Z,8.90
2019-03-04T15:31:22.388Z,8.90
2019-03-04T15:33:55.529Z,8.90
2019-03-04T15:36:28.626Z,8.90
2019-03-04T15:39:01.629Z,8.90
2019-03-04T15:41:40.346Z,8.80
2019-03-04T15:44:12.303Z,8.80
2019-03-04T15:46:45.520Z,8.80
2019-03-04T15:49:18.292Z,8.80
2019-03-04T15:51:52.263Z,8.80
2019-03-04T15:54:25.159Z,9.00
2019-03-04T15:57:01.623Z,9.10
2019-03-04T15:59:34.518Z,9.00
2019-03-04T16:02:08.726Z,9.00
2019-03-04T16:04:41.642Z,9.10
2019-03-04T16:07:15.180Z,9.20
2019-03-04T16:09:48.093Z,9.40
2019-03-04T16:12:22.633Z,9.50
2019-03-04T16:14:55.733Z,9.60
2019-03-04T16:17:28.726Z,9.70
2019-03-04T16:20:01.491Z,9.60
2019-03-04T16:22:35.792Z,9.70
2019-03-04T16:25:21.236Z,9.60
2019-03-04T16:28:26.644Z,9.60
2019-03-04T16:30:59.820Z,9.60
2019-03-04T16:33:33.909Z,9.50
2019-03-04T16:36:06.957Z,9.50
2019-03-04T16:38:40.104Z,9.50
2019-03-04T16:41:13.228Z,9.50
2019-03-04T16:43:46.302Z,9.50
2019-03-04T16:46:19.643Z,9.40
2019-03-04T16:48:52.675Z,9.30
2019-03-04T16:51:25.524Z,9.10
2019-03-04T16:53:58.633Z,9.10
2019-03-04T16:56:31.708Z,9.00
2019-03-04T16:59:04.620Z,9.00
2019-03-04T17:01:37.527Z,8.90
2019-03-04T17:04:10.595Z,8.90
2019-03-04T17:06:43.638Z,8.90
2019-03-04T17:09:18.720Z,8.80
2019-03-04T17:11:51.638Z,8.80
2019-03-04T17:14:24.515Z,8.70
2019-03-04T17:16:57.612Z,8.70
2019-03-04T17:19:30.628Z,8.60
2019-03-04T17:22:03.540Z,8.60
2019-03-04T17:24:36.504Z,8.50
2019-03-04T17:27:09.485Z,8.50
2019-03-04T17:29:42.375Z,8.50
2019-03-04T17:32:15.304Z,8.40
2019-03-04T17:34:49.326Z,8.40
2019-03-04T17:37:22.122Z,8.40
2019-03-04T17:39:55.100Z,8.30
2019-03-04T17:42:28.145Z,8.30
2019-03-04T17:45:02.094Z,8.30
2019-03-04T17:47:37.213Z,8.30
2019-03-04T17:50:12.279Z,8.30
2019-03-04T17:52:45.930Z,8.20
2019-03-04T17:55:19.205Z,8.20
2019-03-04T17:57:52.088Z,8.30
2019-03-04T18:00:25.120Z,8.30
2019-03-04T18:02:58.243Z,8.30
2019-03-04T18:05:31.175Z,8.30
2019-03-04T18:08:04.419Z,8.20
2019-03-04T18:10:37.309Z,8.10
2019-03-04T18:13:11.174Z,8.10
2019-03-04T18:15:44.381Z,8.10
2019-03-04T18:18:17.247Z,8.10
2019-03-04T18:20:50.229Z,8.10
2019-03-04T18:23:23.239Z,8.10
2019-03-04T18:26:12.615Z,8.00
2019-03-04T18:29:38.941Z,8.10
2019-03-04T18:32:45.196Z,8.00
2019-03-04T18:35:43.186Z,8.00
2019-03-04T18:38:53.790Z,7.90
2019-03-04T18:41:52.473Z,7.90
2019-03-04T18:44:59.671Z,7.90
2019-03-04T18:47:56.200Z,7.80
2019-03-04T18:50:29.034Z,7.80
2019-03-04T18:53:02.036Z,7.80
2019-03-04T18:55:37.471Z,7.70
2019-03-04T18:58:10.954Z,7.80
2019-03-04T19:00:44.170Z,7.80
2019-03-04T19:03:17.459Z,7.80
2019-03-04T19:05:50.672Z,7.80
2019-03-04T19:08:23.644Z,7.70
2019-03-04T19:10:57.564Z,7.70
2019-03-04T19:13:30.428Z,7.70
2019-03-04T19:16:03.442Z,7.70
2019-03-04T19:18:36.358Z,7.70
2019-03-04T19:21:09.584Z,7.60
2019-03-04T19:23:42.682Z,7.60
2019-03-04T19:26:16.491Z,7.60
2019-03-04T19:28:49.406Z,7.60
2019-03-04T19:31:22.811Z,7.60
2019-03-04T19:33:55.956Z,7.60
2019-03-04T19:36:49.459Z,7.50
2019-03-04T19:39:22.593Z,7.50
2019-03-04T19:41:55.459Z,7.40
2019-03-04T19:44:28.254Z,7.40
2019-03-04T19:47:01.075Z,7.30
2019-03-04T19:49:34.601Z,7.30
2019-03-04T19:52:07.515Z,7.40
2019-03-04T19:54:40.565Z,7.40
2019-03-04T19:57:13.739Z,7.40
2019-03-04T19:59:46.966Z,7.30
2019-03-04T20:02:21.327Z,7.30
2019-03-04T20:04:54.211Z,7.20
2019-03-04T20:07:27.195Z,7.20
2019-03-04T20:10:00.339Z,7.30
2019-03-04T20:12:33.222Z,7.30
2019-03-04T20:15:08.845Z,7.30
2019-03-04T20:17:42.029Z,7.20
2019-03-04T20:20:15.112Z,7.20
2019-03-04T20:22:48.477Z,7.10
2019-03-04T20:25:21.600Z,7.10
2019-03-04T20:27:54.675Z,7.10
2019-03-04T20:30:27.746Z,7.10
2019-03-04T20:33:00.487Z,7.10
2019-03-04T20:35:33.602Z,7.10
2019-03-04T20:38:07.225Z,7.10
2019-03-04T20:40:40.050Z,7.10
2019-03-04T20:43:13.045Z,7.10
2019-03-04T20:45:46.191Z,7.10
2019-03-04T20:48:19.010Z,7.20
2019-03-04T20:50:51.986Z,7.20
2019-03-04T20:53:24.941Z,7.30
2019-03-04T20:55:57.931Z,7.30
2019-03-04T20:58:30.670Z,7.40
2019-03-04T21:01:04.651Z,7.40
2019-03-04T21:03:38.629Z,7.40
2019-03-04T21:06:11.943Z,7.40
2019-03-04T21:08:45.241Z,7.30
2019-03-04T21:11:19.637Z,7.10
2019-03-04T21:13:52.613Z,7.00
2019-03-04T21:16:25.877Z,6.90
2019-03-04T21:18:59.167Z,6.90
2019-03-04T21:21:31.937Z,6.90
2019-03-04T21:24:05.066Z,6.50
2019-03-04T21:26:41.340Z,6.30
2019-03-04T21:29:58.687Z,6.10
2019-03-04T21:32:56.816Z,6.00
2019-03-04T21:36:01.697Z,5.90
2019-03-04T21:38:34.627Z,5.90
2019-03-04T21:41:53.256Z,5.90
2019-03-04T21:45:27.370Z,5.90
2019-03-04T21:48:08.120Z,5.90
2019-03-04T21:50:49.528Z,6.00
2019-03-04T21:53:27.817Z,6.00
2019-03-04T21:56:10.902Z,6.00
2019-03-04T21:58:43.858Z,6.00
2019-03-04T22:01:21.542Z,6.00
2019-03-04T22:03:54.918Z,6.10
2019-03-04T22:06:28.112Z,6.00
2019-03-04T22:09:08.286Z,6.10
2019-03-04T22:11:42.889Z,6.10
2019-03-04T22:14:15.931Z,6.20
2019-03-04T22:16:49.656Z,6.20
2019-03-04T22:19:23.742Z,6.30
2019-03-04T22:21:56.791Z,6.40
2019-03-04T22:24:29.892Z,6.50
2019-03-04T22:27:02.902Z,6.50
2019-03-04T22:29:36.282Z,6.60
2019-03-04T22:32:09.519Z,6.60
2019-03-04T22:34:43.056Z,6.80
2019-03-04T22:37:16.025Z,6.90
2019-03-04T22:39:49.287Z,6.90
2019-03-04T22:42:22.291Z,7.00
2019-03-04T22:44:55.158Z,7.00
2019-03-04T22:47:28.383Z,7.10
2019-03-04T22:50:01.336Z,7.20
2019-03-04T22:52:34.289Z,7.30
2019-03-04T22:55:10.077Z,7.30
2019-03-04T22:57:43.064Z,7.30
2019-03-04T23:01:31.149Z,7.40
2019-03-04T23:04:24.562Z,7.40
2019-03-04T23:07:06.131Z,7.40
2019-03-04T23:10:04.049Z,7.40
2019-03-04T23:12:45.842Z,7.50
2019-03-04T23:15:19.339Z,7.40
2019-03-04T23:17:52.277Z,7.50
2019-03-04T23:20:25.484Z,7.40
2019-03-04T23:22:59.310Z,7.40
2019-03-04T23:25:32.537Z,7.40
2019-03-04T23:28:05.413Z,7.40
2019-03-04T23:30:38.359Z,7.40
2019-03-04T23:33:11.402Z,7.40
2019-03-04T23:35:44.123Z,7.40
2019-03-04T23:38:17.166Z,7.30
2019-03-04T23:40:50.304Z,7.30
2019-03-04T23:43:23.343Z,7.30
2019-03-04T23:45:56.235Z,7.40
2019-03-04T23:48:29.239Z,7.40
2019-03-04T23:51:02.472Z,7.40
2019-03-04T23:53:35.394Z,7.40
2019-03-04T23:56:08.326Z,7.40
2019-03-04T23:58:41.322Z,7.40
